sensor_id;sensor_type;location;lat;lon;timestamp;pressure;altitude;pressure_sealevel;temperature;humidity
57248;BME280;55809;46.618;10.764;2023-09-07T00:01:57;93599.09;;;17.45;76.57
57248;BME280;55809;46.618;10.764;2023-09-07T00:04:24;93601.81;;;17.45;76.39
57248;BME280;55809;46.618;10.764;2023-09-07T00:06:50;93601.72;;;17.32;76.65
57248;BME280;55809;46.618;10.764;2023-09-07T00:09:18;93606.59;;;17.41;76.75
57248;BME280;55809;46.618;10.764;2023-09-07T00:11:48;93609.72;;;17.40;77.07
57248;BME280;55809;46.618;10.764;2023-09-07T00:14:15;93607.69;;;17.44;77.11
57248;BME280;55809;46.618;10.764;2023-09-07T00:16:42;93617.41;;;17.45;77.17
57248;BME280;55809;46.618;10.764;2023-09-07T00:19:10;93574.00;;;17.18;77.01
57248;BME280;55809;46.618;10.764;2023-09-07T00:21:37;93614.69;;;17.45;77.11
57248;BME280;55809;46.618;10.764;2023-09-07T00:24:04;93607.75;;;17.40;77.12
57248;BME280;55809;46.618;10.764;2023-09-07T00:26:32;93614.59;;;17.48;76.92
57248;BME280;55809;46.618;10.764;2023-09-07T00:29:00;93615.00;;;17.47;76.38
57248;BME280;55809;46.618;10.764;2023-09-07T00:31:27;93614.41;;;17.39;76.33
57248;BME280;55809;46.618;10.764;2023-09-07T00:33:54;93620.72;;;17.36;77.11
57248;BME280;55809;46.618;10.764;2023-09-07T00:36:21;93614.91;;;17.34;77.72
57248;BME280;55809;46.618;10.764;2023-09-07T00:38:48;93618.84;;;17.33;77.93
57248;BME280;55809;46.618;10.764;2023-09-07T00:41:15;93615.06;;;17.27;78.23
57248;BME280;55809;46.618;10.764;2023-09-07T00:43:42;93620.28;;;17.21;78.21
57248;BME280;55809;46.618;10.764;2023-09-07T00:46:11;93616.78;;;17.21;78.20
57248;BME280;55809;46.618;10.764;2023-09-07T00:48:38;93612.50;;;17.20;77.74
57248;BME280;55809;46.618;10.764;2023-09-07T00:51:06;93617.88;;;17.23;77.51
57248;BME280;55809;46.618;10.764;2023-09-07T00:53:34;93618.31;;;17.22;77.94
57248;BME280;55809;46.618;10.764;2023-09-07T00:56:02;93614.84;;;17.21;77.78
57248;BME280;55809;46.618;10.764;2023-09-07T00:58:29;93611.00;;;17.19;77.56
57248;BME280;55809;46.618;10.764;2023-09-07T01:00:56;93621.38;;;17.24;77.58
57248;BME280;55809;46.618;10.764;2023-09-07T01:03:26;93613.56;;;17.26;77.46
57248;BME280;55809;46.618;10.764;2023-09-07T01:05:57;93617.13;;;17.23;77.67
57248;BME280;55809;46.618;10.764;2023-09-07T01:08:29;93597.91;;;17.10;77.68
57248;BME280;55809;46.618;10.764;2023-09-07T01:10:58;93616.38;;;17.22;78.03
57248;BME280;55809;46.618;10.764;2023-09-07T01:13:25;93615.16;;;17.23;77.81
57248;BME280;55809;46.618;10.764;2023-09-07T01:15:52;93609.72;;;17.23;77.86
57248;BME280;55809;46.618;10.764;2023-09-07T01:18:19;93612.88;;;17.22;78.08
57248;BME280;55809;46.618;10.764;2023-09-07T01:20:49;93613.28;;;17.20;78.12
57248;BME280;55809;46.618;10.764;2023-09-07T01:23:18;93619.09;;;17.22;77.80
57248;BME280;55809;46.618;10.764;2023-09-07T01:25:45;93615.16;;;17.23;77.73
57248;BME280;55809;46.618;10.764;2023-09-07T01:28:12;93617.88;;;17.23;77.63
57248;BME280;55809;46.618;10.764;2023-09-07T01:30:41;93614.03;;;17.21;77.58
57248;BME280;55809;46.618;10.764;2023-09-07T01:33:08;93618.41;;;17.18;77.76
57248;BME280;55809;46.618;10.764;2023-09-07T01:35:36;93617.28;;;17.16;77.71
57248;BME280;55809;46.618;10.764;2023-09-07T01:38:05;93613.34;;;17.17;77.62
57248;BME280;55809;46.618;10.764;2023-09-07T01:40:33;93603.66;;;17.16;77.64
57248;BME280;55809;46.618;10.764;2023-09-07T01:43:01;93616.94;;;17.14;77.57
57248;BME280;55809;46.618;10.764;2023-09-07T01:45:28;93609.19;;;17.12;77.59
57248;BME280;55809;46.618;10.764;2023-09-07T01:47:55;93593.09;;;16.98;77.65
57248;BME280;55809;46.618;10.764;2023-09-07T01:50:21;93614.28;;;17.10;77.79
57248;BME280;55809;46.618;10.764;2023-09-07T01:52:51;93614.00;;;17.04;77.89
57248;BME280;55809;46.618;10.764;2023-09-07T01:55:18;93616.97;;;16.94;78.51
57248;BME280;55809;46.618;10.764;2023-09-07T01:57:46;93601.59;;;16.83;78.59
57248;BME280;55809;46.618;10.764;2023-09-07T02:00:14;93607.75;;;16.87;78.59
57248;BME280;55809;46.618;10.764;2023-09-07T02:02:40;93617.03;;;16.90;78.56
57248;BME280;55809;46.618;10.764;2023-09-07T02:05:08;93614.59;;;16.96;78.55
57248;BME280;55809;46.618;10.764;2023-09-07T02:07:35;93612.19;;;16.98;78.46
57248;BME280;55809;46.618;10.764;2023-09-07T02:10:02;93606.75;;;16.98;78.31
57248;BME280;55809;46.618;10.764;2023-09-07T02:12:29;93601.59;;;16.83;78.17
57248;BME280;55809;46.618;10.764;2023-09-07T02:15:02;93618.44;;;16.98;78.06
57248;BME280;55809;46.618;10.764;2023-09-07T02:17:30;93606.91;;;16.91;77.85
57248;BME280;55809;46.618;10.764;2023-09-07T02:19:58;93615.38;;;16.96;78.03
57248;BME280;55809;46.618;10.764;2023-09-07T02:22:25;93591.53;;;16.80;78.04
57248;BME280;55809;46.618;10.764;2023-09-07T02:24:52;93600.41;;;16.84;78.13
57248;BME280;55809;46.618;10.764;2023-09-07T02:27:19;93619.38;;;16.92;78.06
57248;BME280;55809;46.618;10.764;2023-09-07T02:29:46;93627.63;;;16.88;78.23
57248;BME280;55809;46.618;10.764;2023-09-07T02:32:14;93623.50;;;16.80;78.63
57248;BME280;55809;46.618;10.764;2023-09-07T02:34:42;93629.78;;;16.77;78.64
57248;BME280;55809;46.618;10.764;2023-09-07T02:37:09;93630.59;;;16.74;78.76
57248;BME280;55809;46.618;10.764;2023-09-07T02:39:36;93636.47;;;16.72;78.60
57248;BME280;55809;46.618;10.764;2023-09-07T02:42:03;93632.69;;;16.66;79.02
57248;BME280;55809;46.618;10.764;2023-09-07T02:44:30;93630.06;;;16.62;78.90
57248;BME280;55809;46.618;10.764;2023-09-07T02:46:57;93626.19;;;16.60;79.20
57248;BME280;55809;46.618;10.764;2023-09-07T02:52:51;93597.75;;;16.41;78.60
57248;BME280;55809;46.618;10.764;2023-09-07T02:55:19;93628.84;;;16.63;78.62
57248;BME280;55809;46.618;10.764;2023-09-07T02:57:46;93629.97;;;16.66;78.51
57248;BME280;55809;46.618;10.764;2023-09-07T03:00:14;93616.91;;;16.57;78.57
57248;BME280;55809;46.618;10.764;2023-09-07T03:02:43;93627.59;;;16.68;78.43
57248;BME280;55809;46.618;10.764;2023-09-07T03:05:10;93629.28;;;16.62;78.61
57248;BME280;55809;46.618;10.764;2023-09-07T03:07:37;93629.28;;;16.62;78.81
57248;BME280;55809;46.618;10.764;2023-09-07T03:10:07;93626.97;;;16.60;78.69
57248;BME280;55809;46.618;10.764;2023-09-07T03:12:34;93628.16;;;16.59;78.66
57248;BME280;55809;46.618;10.764;2023-09-07T03:15:01;93629.47;;;16.51;78.96
57248;BME280;55809;46.618;10.764;2023-09-07T03:17:29;93610.97;;;16.42;79.06
57248;BME280;55809;46.618;10.764;2023-09-07T03:19:56;93626.34;;;16.53;79.04
57248;BME280;55809;46.618;10.764;2023-09-07T03:22:23;93626.28;;;16.56;78.82
57248;BME280;55809;46.618;10.764;2023-09-07T03:24:50;93627.81;;;16.57;78.57
57248;BME280;55809;46.618;10.764;2023-09-07T03:27:19;93616.56;;;16.55;78.88
57248;BME280;55809;46.618;10.764;2023-09-07T03:29:49;93620.91;;;16.53;78.84
57248;BME280;55809;46.618;10.764;2023-09-07T03:32:16;93623.25;;;16.51;78.94
57248;BME280;55809;46.618;10.764;2023-09-07T03:34:43;93619.84;;;16.47;79.09
57248;BME280;55809;46.618;10.764;2023-09-07T03:37:11;93628.78;;;16.47;79.00
57248;BME280;55809;46.618;10.764;2023-09-07T03:39:38;93624.94;;;16.45;79.01
57248;BME280;55809;46.618;10.764;2023-09-07T03:42:05;93626.56;;;16.42;79.30
57248;BME280;55809;46.618;10.764;2023-09-07T03:44:33;93601.59;;;16.24;79.17
57248;BME280;55809;46.618;10.764;2023-09-07T03:47:01;93630.75;;;16.47;79.00
57248;BME280;55809;46.618;10.764;2023-09-07T03:49:29;93623.81;;;16.42;79.04
57248;BME280;55809;46.618;10.764;2023-09-07T03:51:55;93623.81;;;16.42;79.20
57248;BME280;55809;46.618;10.764;2023-09-07T03:54:22;93628.41;;;16.45;78.94
57248;BME280;55809;46.618;10.764;2023-09-07T03:56:49;93590.69;;;16.24;78.66
57248;BME280;55809;46.618;10.764;2023-09-07T03:59:16;93617.03;;;16.50;78.38
57248;BME280;55809;46.618;10.764;2023-09-07T04:01:45;93613.41;;;16.37;78.64
57248;BME280;55809;46.618;10.764;2023-09-07T04:04:12;93620.25;;;16.45;78.46
57248;BME280;55809;46.618;10.764;2023-09-07T04:06:39;93623.75;;;16.46;78.30
57248;BME280;55809;46.618;10.764;2023-09-07T04:09:06;93615.16;;;16.47;78.03
57248;BME280;55809;46.618;10.764;2023-09-07T04:11:33;93613.94;;;16.48;77.88
57248;BME280;55809;46.618;10.764;2023-09-07T04:14:00;93621.44;;;16.44;78.03
57248;BME280;55809;46.618;10.764;2023-09-07T04:16:27;93611.50;;;16.34;78.42
57248;BME280;55809;46.618;10.764;2023-09-07T04:18:55;93590.97;;;16.09;78.85
57248;BME280;55809;46.618;10.764;2023-09-07T04:21:22;93594.53;;;16.06;79.08
57248;BME280;55809;46.618;10.764;2023-09-07T04:23:49;93606.66;;;16.22;78.91
57248;BME280;55809;46.618;10.764;2023-09-07T04:26:16;93612.19;;;16.18;78.79
57248;BME280;55809;46.618;10.764;2023-09-07T04:28:43;93614.09;;;16.21;78.91
57248;BME280;55809;46.618;10.764;2023-09-07T04:31:10;93609.06;;;16.20;79.11
57248;BME280;55809;46.618;10.764;2023-09-07T04:33:38;93607.88;;;16.21;78.92
57248;BME280;55809;46.618;10.764;2023-09-07T04:36:10;93601.72;;;16.16;78.60
57248;BME280;55809;46.618;10.764;2023-09-07T04:38:38;93606.28;;;16.23;78.77
57248;BME280;55809;46.618;10.764;2023-09-07T04:41:06;93604.72;;;16.22;78.57
57248;BME280;55809;46.618;10.764;2023-09-07T04:43:34;93607.81;;;16.24;78.31
57248;BME280;55809;46.618;10.764;2023-09-07T04:46:00;93606.59;;;16.25;77.97
57248;BME280;55809;46.618;10.764;2023-09-07T04:48:28;93613.47;;;16.33;77.54
57248;BME280;55809;46.618;10.764;2023-09-07T04:50:58;93614.16;;;16.37;77.27
57248;BME280;55809;46.618;10.764;2023-09-07T04:53:28;93591.59;;;16.17;77.36
57248;BME280;55809;46.618;10.764;2023-09-07T04:55:55;93616.28;;;16.30;77.44
57248;BME280;55809;46.618;10.764;2023-09-07T04:58:23;93586.06;;;16.01;77.35
57248;BME280;55809;46.618;10.764;2023-09-07T05:00:50;93615.22;;;16.24;77.53
57248;BME280;55809;46.618;10.764;2023-09-07T05:03:17;93618.28;;;16.26;77.47
57248;BME280;55809;46.618;10.764;2023-09-07T05:05:44;93610.88;;;16.26;77.13
57248;BME280;55809;46.618;10.764;2023-09-07T05:08:11;93618.69;;;16.24;77.35
57248;BME280;55809;46.618;10.764;2023-09-07T05:10:40;93612.19;;;16.18;77.28
57248;BME280;55809;46.618;10.764;2023-09-07T05:13:08;93606.41;;;16.16;76.93
57248;BME280;55809;46.618;10.764;2023-09-07T05:15:35;93620.66;;;16.24;76.99
57248;BME280;55809;46.618;10.764;2023-09-07T05:18:02;93626.66;;;16.35;76.61
57248;BME280;55809;46.618;10.764;2023-09-07T05:20:30;93625.06;;;16.37;76.74
57248;BME280;55809;46.618;10.764;2023-09-07T05:22:57;93629.28;;;16.42;76.50
57248;BME280;55809;46.618;10.764;2023-09-07T05:25:24;93590.91;;;16.33;75.76
57248;BME280;55809;46.618;10.764;2023-09-07T05:27:53;93620.28;;;16.65;75.61
57248;BME280;55809;46.618;10.764;2023-09-07T05:30:20;93621.72;;;16.70;75.04
57248;BME280;55809;46.618;10.764;2023-09-07T05:32:47;93624.25;;;16.80;74.53
57248;BME280;55809;46.618;10.764;2023-09-07T05:35:14;93625.75;;;16.85;74.45
57248;BME280;55809;46.618;10.764;2023-09-07T05:37:42;93625.66;;;16.88;74.32
57248;BME280;55809;46.618;10.764;2023-09-07T05:40:10;93630.13;;;16.99;73.89
57248;BME280;55809;46.618;10.764;2023-09-07T05:42:37;93622.13;;;17.08;73.60
57248;BME280;55809;46.618;10.764;2023-09-07T05:45:07;93624.34;;;17.13;73.58
57248;BME280;55809;46.618;10.764;2023-09-07T05:47:34;93628.81;;;17.23;73.21
57248;BME280;55809;46.618;10.764;2023-09-07T05:50:01;93625.78;;;17.38;72.91
57248;BME280;55809;46.618;10.764;2023-09-07T05:52:28;93630.91;;;17.52;72.43
57248;BME280;55809;46.618;10.764;2023-09-07T05:54:54;93626.38;;;17.62;72.21
57248;BME280;55809;46.618;10.764;2023-09-07T05:57:21;93629.72;;;17.86;71.60
57248;BME280;55809;46.618;10.764;2023-09-07T05:59:48;93621.53;;;18.02;70.58
57248;BME280;55809;46.618;10.764;2023-09-07T06:02:17;93624.81;;;18.26;70.18
57248;BME280;55809;46.618;10.764;2023-09-07T06:04:44;93627.03;;;18.60;68.99
57248;BME280;55809;46.618;10.764;2023-09-07T06:07:11;93631.06;;;18.85;68.34
57248;BME280;55809;46.618;10.764;2023-09-07T06:09:38;93626.88;;;19.09;67.33
57248;BME280;55809;46.618;10.764;2023-09-07T06:12:05;93624.91;;;19.35;66.72
57248;BME280;55809;46.618;10.764;2023-09-07T06:14:32;93629.75;;;19.70;65.80
57248;BME280;55809;46.618;10.764;2023-09-07T06:16:59;93631.38;;;19.92;64.91
57248;BME280;55809;46.618;10.764;2023-09-07T06:19:27;93619.84;;;20.10;63.91
57248;BME280;55809;46.618;10.764;2023-09-07T06:21:54;93614.06;;;20.30;63.06
57248;BME280;55809;46.618;10.764;2023-09-07T06:24:22;93627.56;;;20.59;62.04
57248;BME280;55809;46.618;10.764;2023-09-07T06:26:48;93635.19;;;20.77;62.06
57248;BME280;55809;46.618;10.764;2023-09-07T06:29:15;93626.25;;;20.86;62.26
57248;BME280;55809;46.618;10.764;2023-09-07T06:31:42;93628.56;;;20.88;62.03
57248;BME280;55809;46.618;10.764;2023-09-07T06:34:09;93628.16;;;20.98;62.48
57248;BME280;55809;46.618;10.764;2023-09-07T06:36:38;93631.66;;;21.21;61.15
57248;BME280;55809;46.618;10.764;2023-09-07T06:39:05;93622.13;;;21.35;60.26
57248;BME280;55809;46.618;10.764;2023-09-07T06:41:32;93641.78;;;21.64;60.24
57248;BME280;55809;46.618;10.764;2023-09-07T06:43:59;93640.16;;;21.76;59.22
57248;BME280;55809;46.618;10.764;2023-09-07T06:46:26;93640.78;;;21.80;59.67
57248;BME280;55809;46.618;10.764;2023-09-07T06:48:53;93634.75;;;22.04;57.68
57248;BME280;55809;46.618;10.764;2023-09-07T06:51:20;93613.50;;;22.04;57.12
57248;BME280;55809;46.618;10.764;2023-09-07T06:53:48;93623.69;;;22.35;56.90
57248;BME280;55809;46.618;10.764;2023-09-07T06:56:16;93639.59;;;22.58;56.99
57248;BME280;55809;46.618;10.764;2023-09-07T06:58:44;93638.09;;;22.94;55.36
57248;BME280;55809;46.618;10.764;2023-09-07T07:01:11;93618.66;;;22.98;55.39
57248;BME280;55809;46.618;10.764;2023-09-07T07:03:37;93630.25;;;23.11;53.25
57248;BME280;55809;46.618;10.764;2023-09-07T07:06:04;93628.22;;;23.30;54.33
57248;BME280;55809;46.618;10.764;2023-09-07T07:08:31;93629.09;;;23.45;52.65
57248;BME280;55809;46.618;10.764;2023-09-07T07:11:02;93616.63;;;23.59;52.16
57248;BME280;55809;46.618;10.764;2023-09-07T07:13:29;93615.66;;;23.80;51.71
57248;BME280;55809;46.618;10.764;2023-09-07T07:15:56;93622.03;;;23.96;51.89
57248;BME280;55809;46.618;10.764;2023-09-07T07:18:23;93612.81;;;24.23;50.86
57248;BME280;55809;46.618;10.764;2023-09-07T07:20:50;93614.09;;;24.37;50.33
57248;BME280;55809;46.618;10.764;2023-09-07T07:23:17;93609.22;;;24.31;50.04
57248;BME280;55809;46.618;10.764;2023-09-07T07:25:44;93610.06;;;24.47;50.05
57248;BME280;55809;46.618;10.764;2023-09-07T07:28:12;93615.59;;;24.47;49.90
57248;BME280;55809;46.618;10.764;2023-09-07T07:30:40;93619.44;;;24.64;49.52
57248;BME280;55809;46.618;10.764;2023-09-07T07:33:07;93614.53;;;24.83;49.02
57248;BME280;55809;46.618;10.764;2023-09-07T07:35:34;93614.41;;;24.77;48.31
57248;BME280;55809;46.618;10.764;2023-09-07T07:38:01;93609.19;;;24.65;48.24
57248;BME280;55809;46.618;10.764;2023-09-07T07:40:29;93609.75;;;24.69;48.06
57248;BME280;55809;46.618;10.764;2023-09-07T07:42:56;93613.28;;;24.84;47.75
57248;BME280;55809;46.618;10.764;2023-09-07T07:45:24;93614.53;;;24.83;47.26
57248;BME280;55809;46.618;10.764;2023-09-07T07:47:52;93607.69;;;24.93;46.52
57248;BME280;55809;46.618;10.764;2023-09-07T07:50:19;93600.38;;;25.05;47.15
57248;BME280;55809;46.618;10.764;2023-09-07T07:52:46;93605.16;;;25.19;46.60
57248;BME280;55809;46.618;10.764;2023-09-07T07:55:13;93601.16;;;25.20;48.38
57248;BME280;55809;46.618;10.764;2023-09-07T07:57:40;93602.75;;;25.27;49.74
57248;BME280;55809;46.618;10.764;2023-09-07T08:00:08;93600.66;;;25.52;47.67
57248;BME280;55809;46.618;10.764;2023-09-07T08:02:37;93593.78;;;25.62;46.44
57248;BME280;55809;46.618;10.764;2023-09-07T08:05:05;93599.97;;;25.71;45.94
57248;BME280;55809;46.618;10.764;2023-09-07T08:07:32;93591.97;;;25.73;45.91
57248;BME280;55809;46.618;10.764;2023-09-07T08:09:59;93592.63;;;25.68;46.95
57248;BME280;55809;46.618;10.764;2023-09-07T08:12:26;93584.84;;;26.02;46.61
57248;BME280;55809;46.618;10.764;2023-09-07T08:14:53;93589.22;;;26.29;45.14
57248;BME280;55809;46.618;10.764;2023-09-07T08:17:21;93589.91;;;26.44;46.12
57248;BME280;55809;46.618;10.764;2023-09-07T08:19:50;93589.81;;;26.54;45.07
57248;BME280;55809;46.618;10.764;2023-09-07T08:22:21;93580.75;;;26.53;44.07
57248;BME280;55809;46.618;10.764;2023-09-07T08:24:48;93589.13;;;26.59;45.59
57248;BME280;55809;46.618;10.764;2023-09-07T08:27:16;93586.06;;;26.57;46.47
57248;BME280;55809;46.618;10.764;2023-09-07T08:29:44;93587.94;;;26.65;45.68
57248;BME280;55809;46.618;10.764;2023-09-07T08:32:13;93585.97;;;26.72;45.00
57248;BME280;55809;46.618;10.764;2023-09-07T08:34:40;93585.97;;;26.72;46.05
57248;BME280;55809;46.618;10.764;2023-09-07T08:37:09;93580.03;;;26.79;45.56
57248;BME280;55809;46.618;10.764;2023-09-07T08:39:36;93580.94;;;26.96;44.48
57248;BME280;55809;46.618;10.764;2023-09-07T08:42:05;93582.59;;;27.08;45.79
57248;BME280;55809;46.618;10.764;2023-09-07T08:44:33;93579.66;;;27.18;45.00
57248;BME280;55809;46.618;10.764;2023-09-07T08:47:02;93570.34;;;27.21;44.20
57248;BME280;55809;46.618;10.764;2023-09-07T08:49:29;93569.38;;;27.24;45.17
57248;BME280;55809;46.618;10.764;2023-09-07T08:51:59;93573.69;;;27.25;44.23
57248;BME280;55809;46.618;10.764;2023-09-07T08:54:28;93566.44;;;27.33;43.56
57248;BME280;55809;46.618;10.764;2023-09-07T08:56:56;93576.00;;;27.32;43.97
57248;BME280;55809;46.618;10.764;2023-09-07T08:59:24;93552.28;;;27.31;44.26
57248;BME280;55809;46.618;10.764;2023-09-07T09:01:56;93560.22;;;27.44;43.88
57248;BME280;55809;46.618;10.764;2023-09-07T09:04:24;93564.19;;;27.69;43.69
57248;BME280;55809;46.618;10.764;2023-09-07T09:06:51;93564.66;;;27.62;44.16
57248;BME280;55809;46.618;10.764;2023-09-07T09:09:22;93554.84;;;27.66;42.91
57248;BME280;55809;46.618;10.764;2023-09-07T09:11:51;93556.81;;;27.60;44.49
57248;BME280;55809;46.618;10.764;2023-09-07T09:14:18;93541.44;;;27.59;44.41
57248;BME280;55809;46.618;10.764;2023-09-07T09:16:49;93546.41;;;27.49;44.11
57248;BME280;55809;46.618;10.764;2023-09-07T09:19:30;93549.19;;;27.49;44.51
57248;BME280;55809;46.618;10.764;2023-09-07T09:21:57;93543.13;;;27.51;44.39
57248;BME280;55809;46.618;10.764;2023-09-07T09:24:25;93537.44;;;27.28;44.50
57248;BME280;55809;46.618;10.764;2023-09-07T09:26:53;93521.31;;;27.32;44.16
57248;BME280;55809;46.618;10.764;2023-09-07T09:29:22;93533.53;;;27.46;43.86
57248;BME280;55809;46.618;10.764;2023-09-07T09:31:51;93506.72;;;27.32;44.10
57248;BME280;55809;46.618;10.764;2023-09-07T09:34:18;93535.75;;;27.42;44.99
57248;BME280;55809;46.618;10.764;2023-09-07T09:36:45;93534.91;;;27.30;44.55
57248;BME280;55809;46.618;10.764;2023-09-07T09:39:22;93529.72;;;27.44;45.20
57248;BME280;55809;46.618;10.764;2023-09-07T09:41:49;93514.69;;;27.56;45.16
57248;BME280;55809;46.618;10.764;2023-09-07T09:44:20;93532.88;;;27.63;45.33
57248;BME280;55809;46.618;10.764;2023-09-07T09:46:51;93525.53;;;27.22;45.89
57248;BME280;55809;46.618;10.764;2023-09-07T09:49:20;93520.34;;;27.35;45.82
57248;BME280;55809;46.618;10.764;2023-09-07T09:51:48;93520.13;;;27.39;46.20
57248;BME280;55809;46.618;10.764;2023-09-07T09:54:16;93510.88;;;27.53;45.47
57248;BME280;55809;46.618;10.764;2023-09-07T09:56:43;93515.91;;;27.49;46.88
57248;BME280;55809;46.618;10.764;2023-09-07T09:59:12;93512.19;;;27.58;46.32
57248;BME280;55809;46.618;10.764;2023-09-07T10:01:44;93488.28;;;27.29;45.51
57248;BME280;55809;46.618;10.764;2023-09-07T10:04:13;93510.88;;;27.16;46.76
57248;BME280;55809;46.618;10.764;2023-09-07T10:06:53;93496.31;;;27.27;46.22
57248;BME280;55809;46.618;10.764;2023-09-07T10:09:20;93501.75;;;27.79;45.38
57248;BME280;55809;46.618;10.764;2023-09-07T10:11:52;93494.22;;;27.48;45.43
57248;BME280;55809;46.618;10.764;2023-09-07T10:14:20;93488.03;;;27.64;44.92
57248;BME280;55809;46.618;10.764;2023-09-07T10:16:50;93462.34;;;27.32;44.69
57248;BME280;55809;46.618;10.764;2023-09-07T10:19:21;93476.66;;;27.62;44.43
57248;BME280;55809;46.618;10.764;2023-09-07T10:21:50;93488.22;;;27.60;43.56
57248;BME280;55809;46.618;10.764;2023-09-07T10:24:24;93490.91;;;27.81;44.64
57248;BME280;55809;46.618;10.764;2023-09-07T10:26:59;93465.78;;;27.58;43.37
57248;BME280;55809;46.618;10.764;2023-09-07T10:29:27;93480.06;;;27.83;43.69
57248;BME280;55809;46.618;10.764;2023-09-07T10:32:05;93482.59;;;27.81;43.79
57248;BME280;55809;46.618;10.764;2023-09-07T10:34:34;93475.78;;;27.82;43.84
57248;BME280;55809;46.618;10.764;2023-09-07T10:37:04;93478.09;;;27.89;45.09
57248;BME280;55809;46.618;10.764;2023-09-07T10:39:33;93469.81;;;28.00;44.48
57248;BME280;55809;46.618;10.764;2023-09-07T10:42:01;93469.13;;;28.17;42.78
57248;BME280;55809;46.618;10.764;2023-09-07T10:44:29;93460.34;;;28.35;43.63
57248;BME280;55809;46.618;10.764;2023-09-07T10:46:58;93445.91;;;28.20;43.43
57248;BME280;55809;46.618;10.764;2023-09-07T10:49:25;93447.38;;;28.10;43.30
57248;BME280;55809;46.618;10.764;2023-09-07T10:51:53;93458.97;;;28.02;43.86
57248;BME280;55809;46.618;10.764;2023-09-07T10:54:23;93438.25;;;27.92;42.93
57248;BME280;55809;46.618;10.764;2023-09-07T10:56:51;93438.44;;;27.83;44.07
57248;BME280;55809;46.618;10.764;2023-09-07T10:59:18;93431.25;;;28.08;45.55
57248;BME280;55809;46.618;10.764;2023-09-07T11:01:46;93434.97;;;27.99;44.60
57248;BME280;55809;46.618;10.764;2023-09-07T11:04:15;93435.56;;;28.15;45.45
57248;BME280;55809;46.618;10.764;2023-09-07T11:06:44;93434.56;;;28.29;44.47
57248;BME280;55809;46.618;10.764;2023-09-07T11:09:11;93424.94;;;28.19;44.16
57248;BME280;55809;46.618;10.764;2023-09-07T11:11:38;93419.16;;;28.17;44.83
57248;BME280;55809;46.618;10.764;2023-09-07T11:14:06;93422.22;;;28.30;44.10
57248;BME280;55809;46.618;10.764;2023-09-07T11:16:34;93427.28;;;28.37;43.96
57248;BME280;55809;46.618;10.764;2023-09-07T11:19:05;93417.47;;;28.47;43.88
57248;BME280;55809;46.618;10.764;2023-09-07T11:21:34;93403.00;;;28.26;43.73
57248;BME280;55809;46.618;10.764;2023-09-07T11:24:02;93415.84;;;28.13;44.95
57248;BME280;55809;46.618;10.764;2023-09-07T11:26:40;93416.56;;;27.96;45.13
57248;BME280;55809;46.618;10.764;2023-09-07T11:29:07;93408.94;;;27.80;46.51
57248;BME280;55809;46.618;10.764;2023-09-07T11:31:34;93383.34;;;27.59;45.50
57248;BME280;55809;46.618;10.764;2023-09-07T11:34:02;93408.69;;;27.78;46.94
57248;BME280;55809;46.618;10.764;2023-09-07T11:36:29;93403.44;;;27.91;46.36
57248;BME280;55809;46.618;10.764;2023-09-07T11:38:58;93396.72;;;27.60;47.62
57248;BME280;55809;46.618;10.764;2023-09-07T11:41:25;93398.25;;;27.62;47.72
57248;BME280;55809;46.618;10.764;2023-09-07T11:43:52;93401.56;;;27.71;47.74
57248;BME280;55809;46.618;10.764;2023-09-07T11:46:19;93385.69;;;27.72;47.89
57248;BME280;55809;46.618;10.764;2023-09-07T11:48:45;93388.75;;;27.79;47.51
57248;BME280;55809;46.618;10.764;2023-09-07T11:51:12;93375.50;;;27.52;48.06
57248;BME280;55809;46.618;10.764;2023-09-07T11:53:39;93390.88;;;27.53;48.50
57248;BME280;55809;46.618;10.764;2023-09-07T11:56:08;93376.91;;;27.25;49.92
57248;BME280;55809;46.618;10.764;2023-09-07T11:58:35;93363.03;;;27.25;49.04
57248;BME280;55809;46.618;10.764;2023-09-07T12:01:02;93382.19;;;27.28;50.20
57248;BME280;55809;46.618;10.764;2023-09-07T12:03:29;93382.75;;;27.01;48.73
57248;BME280;55809;46.618;10.764;2023-09-07T12:05:58;93378.06;;;26.81;49.56
57248;BME280;55809;46.618;10.764;2023-09-07T12:08:25;93358.28;;;26.62;49.77
57248;BME280;55809;46.618;10.764;2023-09-07T12:10:52;93367.50;;;26.48;50.70
57248;BME280;55809;46.618;10.764;2023-09-07T12:13:21;93366.06;;;26.32;50.92
57248;BME280;55809;46.618;10.764;2023-09-07T12:15:48;93367.81;;;26.29;51.35
57248;BME280;55809;46.618;10.764;2023-09-07T12:18:15;93361.50;;;26.29;51.69
57248;BME280;55809;46.618;10.764;2023-09-07T12:20:43;93357.22;;;26.02;51.47
57248;BME280;55809;46.618;10.764;2023-09-07T12:23:10;93359.84;;;25.85;52.43
57248;BME280;55809;46.618;10.764;2023-09-07T12:25:37;93357.59;;;25.68;53.65
57248;BME280;55809;46.618;10.764;2023-09-07T12:28:07;93326.72;;;25.49;53.76
57248;BME280;55809;46.618;10.764;2023-09-07T12:30:35;93347.63;;;25.50;53.89
57248;BME280;55809;46.618;10.764;2023-09-07T12:33:02;93354.72;;;25.57;56.04
57248;BME280;55809;46.618;10.764;2023-09-07T12:35:29;93353.75;;;25.60;54.88
57248;BME280;55809;46.618;10.764;2023-09-07T12:37:56;93348.50;;;25.62;56.05
57248;BME280;55809;46.618;10.764;2023-09-07T12:40:24;93347.13;;;25.52;55.50
57248;BME280;55809;46.618;10.764;2023-09-07T12:42:51;93338.00;;;25.46;55.41
57248;BME280;55809;46.618;10.764;2023-09-07T12:45:18;93333.44;;;25.43;55.73
57248;BME280;55809;46.618;10.764;2023-09-07T12:47:47;93319.50;;;25.32;54.78
57248;BME280;55809;46.618;10.764;2023-09-07T12:50:14;93329.91;;;25.42;56.09
57248;BME280;55809;46.618;10.764;2023-09-07T12:52:41;93325.44;;;25.45;54.52
57248;BME280;55809;46.618;10.764;2023-09-07T12:55:09;93328.88;;;25.40;54.53
57248;BME280;55809;46.618;10.764;2023-09-07T12:57:37;93325.50;;;25.30;55.69